Time;durP1;ratioP1;P1;durP2;ratioP2;P2;SDS_P1;SDS_P2;PMS_P1;PMS_P2;Temp;Humidity;BMP_temperature;BMP_pressure;BME280_temperature;BME280_humidity;BME280_pressure;Samples;Min_cycle;Max_cycle;Signal;HPM_P1;HPM_P2
2021/08/25 00:01:26;;;;;;;14.57;13.30;;;14.00;99.90;;;;;;5013306;28;20874;-61
2021/08/25 00:03:51;;;;;;;15.30;13.93;;;13.90;99.90;;;;;;5012789;28;20843;-61
2021/08/25 00:06:17;;;;;;;16.70;15.10;;;13.90;99.90;;;;;;5012780;28;20415;-60
2021/08/25 00:08:43;;;;;;;14.97;13.70;;;13.80;99.90;;;;;;5012511;28;20167;-62
2021/08/25 00:11:08;;;;;;;16.17;14.53;;;13.80;99.90;;;;;;5012710;28;20657;-60
2021/08/25 00:13:34;;;;;;;14.43;12.93;;;13.80;99.90;;;;;;5012564;28;20209;-61
2021/08/25 00:15:59;;;;;;;15.93;14.50;;;13.80;99.90;;;;;;5012709;28;20174;-62
2021/08/25 00:18:25;;;;;;;15.80;14.20;;;13.70;99.90;;;;;;5012496;28;20242;-61
2021/08/25 00:20:50;;;;;;;15.60;14.10;;;13.70;99.90;;;;;;5012675;28;20177;-62
2021/08/25 00:23:16;;;;;;;14.77;13.47;;;13.70;99.90;;;;;;5012471;28;20198;-62
2021/08/25 00:25:41;;;;;;;15.07;13.77;;;13.70;99.90;;;;;;5012571;28;20179;-60
2021/08/25 00:28:07;;;;;;;15.13;13.83;;;13.60;99.90;;;;;;5012504;28;20171;-61
2021/08/25 00:30:32;;;;;;;15.20;13.80;;;13.60;99.90;;;;;;5011784;28;20183;-62
2021/08/25 00:32:58;;;;;;;16.30;14.90;;;13.60;99.90;;;;;;5012653;28;20636;-62
2021/08/25 00:35:24;;;;;;;15.40;14.10;;;13.60;99.90;;;;;;5012450;28;20597;-61
2021/08/25 00:37:49;;;;;;;15.50;14.03;;;13.60;99.90;;;;;;5012437;28;20178;-62
2021/08/25 00:40:15;;;;;;;16.10;14.60;;;13.60;99.90;;;;;;5012003;28;20682;-62
2021/08/25 00:42:41;;;;;;;14.70;13.40;;;13.60;99.90;;;;;;5012208;28;20273;-62
2021/08/25 00:45:08;;;;;;;15.27;13.97;;;13.70;99.90;;;;;;5012326;28;20835;-62
2021/08/25 00:47:38;;;;;;;15.10;13.70;;;13.60;99.90;;;;;;5012359;28;20183;-61
2021/08/25 00:50:05;;;;;;;16.27;14.63;;;13.60;99.90;;;;;;5012231;28;20418;-61
2021/08/25 00:52:31;;;;;;;17.93;16.27;;;13.50;99.90;;;;;;5012013;28;20954;-61
2021/08/25 00:55:01;;;;;;;15.43;13.97;;;13.50;99.90;;;;;;5012173;28;20471;-62
2021/08/25 00:57:26;;;;;;;16.10;14.70;;;13.40;99.90;;;;;;5012202;28;20171;-62
2021/08/25 00:59:53;;;;;;;14.70;13.40;;;13.40;99.90;;;;;;5011900;28;20414;-61
2021/08/25 01:02:44;;;;;;;15.40;14.00;;;13.40;99.90;;;;;;5012062;28;20178;-62
2021/08/25 01:05:10;;;;;;;16.43;15.03;;;13.40;99.90;;;;;;5012028;28;20409;-62
2021/08/25 01:07:39;;;;;;;16.60;14.73;;;13.40;99.90;;;;;;5012119;28;20811;-62
2021/08/25 01:10:25;;;;;;;16.47;14.90;;;13.40;99.90;;;;;;5011768;28;20513;-62
2021/08/25 01:12:53;;;;;;;16.37;14.67;;;13.40;99.90;;;;;;5011745;28;20998;-60
2021/08/25 01:15:18;;;;;;;15.50;14.10;;;13.40;99.90;;;;;;5012027;28;20517;-62
2021/08/25 01:17:45;;;;;;;15.97;14.37;;;13.40;99.90;;;;;;5011933;28;20943;-62
2021/08/25 01:20:13;;;;;;;16.47;14.87;;;13.30;99.90;;;;;;5011696;28;20257;-61
2021/08/25 01:22:43;;;;;;;16.33;14.87;;;13.30;99.90;;;;;;5011884;28;20449;-62
2021/08/25 01:25:10;;;;;;;16.20;14.70;;;13.20;99.90;;;;;;5011983;28;20916;-61
2021/08/25 01:27:40;;;;;;;16.83;15.17;;;13.20;99.90;;;;;;5011859;28;20417;-62
2021/08/25 01:30:07;;;;;;;16.30;14.80;;;13.20;99.90;;;;;;5011440;28;20471;-62
2021/08/25 01:32:37;;;;;;;17.90;16.10;;;13.30;99.90;;;;;;5011702;28;20444;-61
2021/08/25 01:35:03;;;;;;;14.93;13.57;;;13.20;99.90;;;;;;5011853;28;20410;-63
2021/08/25 01:37:29;;;;;;;16.37;14.87;;;13.30;99.90;;;;;;5011860;28;20426;-62
2021/08/25 01:39:56;;;;;;;15.43;14.03;;;13.30;99.90;;;;;;5011525;28;20417;-61
2021/08/25 01:42:22;;;;;;;19.00;13.43;;;13.20;99.90;;;;;;5013392;28;20186;-61
2021/08/25 01:44:51;;;;;;;15.87;14.37;;;13.20;99.90;;;;;;5015353;28;20425;-61
2021/08/25 01:47:24;;;;;;;16.50;14.90;;;13.20;99.90;;;;;;5015725;28;20938;-62
2021/08/25 01:49:51;;;;;;;14.87;13.63;;;13.10;99.90;;;;;;5015451;28;20427;-62
2021/08/25 01:52:16;;;;;;;16.30;14.80;;;13.20;99.90;;;;;;5015271;28;20425;-60
2021/08/25 01:54:51;;;;;;;15.90;14.30;;;13.20;99.90;;;;;;5015296;28;20475;-61
2021/08/25 01:57:17;;;;;;;16.50;15.00;;;13.20;99.90;;;;;;5015184;28;20170;-62
2021/08/25 01:59:42;;;;;;;15.63;14.03;;;13.30;99.90;;;;;;5014891;28;20464;-62
2021/08/25 02:02:08;;;;;;;17.27;15.77;;;13.20;99.90;;;;;;5014961;28;20418;-61
2021/08/25 02:04:34;;;;;;;15.40;14.00;;;13.10;99.90;;;;;;5015287;28;20270;-61
2021/08/25 02:07:00;;;;;;;15.03;13.50;;;13.00;99.90;;;;;;5015098;28;20258;-61
2021/08/25 02:09:26;;;;;;;15.20;13.90;;;12.90;99.90;;;;;;5014792;28;20840;-61
2021/08/25 02:11:52;;;;;;;16.37;14.80;;;12.80;99.90;;;;;;5014916;28;20179;-62
2021/08/25 02:14:17;;;;;;;15.47;14.13;;;12.90;99.90;;;;;;5014795;28;20457;-62
2021/08/25 02:16:43;;;;;;;14.63;13.13;;;12.90;99.90;;;;;;5014954;28;20171;-61
2021/08/25 02:19:08;;;;;;;15.03;13.63;;;12.80;99.90;;;;;;5014567;28;20181;-61
2021/08/25 02:21:34;;;;;;;16.57;14.93;;;12.80;99.90;;;;;;5014829;28;20198;-61
2021/08/25 02:24:00;;;;;;;16.00;14.43;;;12.80;99.90;;;;;;5014701;28;20237;-62
2021/08/25 02:26:26;;;;;;;15.53;14.03;;;12.80;99.90;;;;;;5014644;28;20259;-61
2021/08/25 02:28:53;;;;;;;14.37;12.93;;;12.70;99.90;;;;;;5014423;28;20979;-62
2021/08/25 02:31:20;;;;;;;18.30;15.53;;;12.70;99.90;;;;;;5014615;28;20258;-61
2021/08/25 02:33:47;;;;;;;16.07;14.23;;;12.70;99.90;;;;;;5014450;28;20470;-60
2021/08/25 02:36:15;;;;;;;16.53;15.03;;;12.70;99.90;;;;;;5014895;28;20421;-61
2021/08/25 02:38:41;;;;;;;15.53;14.03;;;12.70;99.90;;;;;;5014110;28;20787;-61
2021/08/25 02:41:10;;;;;;;16.17;14.70;;;12.60;99.90;;;;;;5014316;28;20410;-61
2021/08/25 02:43:36;;;;;;;14.90;13.60;;;12.60;99.90;;;;;;5014317;28;20568;-61
2021/08/25 02:46:02;;;;;;;16.27;14.67;;;12.60;99.90;;;;;;5014370;28;20433;-61
2021/08/25 02:48:28;;;;;;;14.93;13.60;;;12.50;99.90;;;;;;5013998;28;20417;-63
2021/08/25 02:50:54;;;;;;;16.40;14.90;;;12.50;99.90;;;;;;5014247;28;20461;-61
2021/08/25 02:53:19;;;;;;;16.30;14.67;;;12.40;99.90;;;;;;5013701;28;20202;-61
2021/08/25 02:55:46;;;;;;;16.57;14.93;;;12.50;99.90;;;;;;5014388;28;20171;-61
2021/08/25 02:58:12;;;;;;;16.17;14.57;;;12.50;99.90;;;;;;5014308;28;20254;-63
2021/08/25 03:00:37;;;;;;;16.20;14.60;;;12.40;99.90;;;;;;5014131;28;20849;-61
2021/08/25 03:03:03;;;;;;;16.37;14.83;;;12.40;99.90;;;;;;5013866;28;20489;-60
2021/08/25 03:05:28;;;;;;;14.80;13.40;;;12.40;99.90;;;;;;5014011;28;20198;-61
2021/08/25 03:07:54;;;;;;;17.00;15.30;;;12.40;99.90;;;;;;5013868;28;20179;-62
2021/08/25 03:10:20;;;;;;;16.60;15.00;;;12.40;99.90;;;;;;5013569;28;20171;-61
2021/08/25 03:12:45;;;;;;;17.40;15.53;;;12.40;99.90;;;;;;5013720;28;20226;-59
2021/08/25 03:15:11;;;;;;;17.47;15.77;;;12.40;99.90;;;;;;5013818;28;20175;-61
2021/08/25 03:17:37;;;;;;;15.70;14.10;;;12.40;99.90;;;;;;5013775;28;20171;-61
2021/08/25 03:20:05;;;;;;;19.40;16.10;;;12.50;99.90;;;;;;5013479;28;20449;-60
2021/08/25 03:22:30;;;;;;;16.20;13.67;;;12.50;99.90;;;;;;5013509;28;20191;-61
2021/08/25 03:24:56;;;;;;;15.23;13.83;;;12.40;99.90;;;;;;5013562;28;20421;-61
2021/08/25 03:27:22;;;;;;;18.30;15.20;;;12.40;99.90;;;;;;5013579;28;20220;-61
2021/08/25 03:29:48;;;;;;;17.83;16.10;;;12.40;99.90;;;;;;5013292;28;20167;-62
2021/08/25 03:32:13;;;;;;;19.07;14.90;;;12.30;99.90;;;;;;5013532;28;20941;-61
2021/08/25 03:34:39;;;;;;;16.00;14.50;;;12.30;99.90;;;;;;5013411;28;20232;-59
2021/08/25 03:37:05;;;;;;;15.17;13.83;;;12.20;99.90;;;;;;5013341;28;20636;-62
2021/08/25 03:39:32;;;;;;;16.00;14.30;;;12.20;99.90;;;;;;5012991;28;20171;-62
2021/08/25 03:41:57;;;;;;;18.07;16.27;;;12.20;99.90;;;;;;5013428;28;20181;-61
2021/08/25 03:44:23;;;;;;;17.27;15.57;;;12.20;99.90;;;;;;5013198;28;20437;-62
2021/08/25 03:46:48;;;;;;;16.00;14.47;;;12.20;99.90;;;;;;5013270;28;20179;-61
2021/08/25 03:49:14;;;;;;;16.43;14.90;;;12.20;99.90;;;;;;5012959;28;20229;-62
2021/08/25 03:51:39;;;;;;;17.33;15.70;;;12.20;99.90;;;;;;5012572;28;20584;-62
2021/08/25 03:54:05;;;;;;;14.97;13.40;;;12.30;99.90;;;;;;5012939;28;20289;-61
2021/08/25 03:56:31;;;;;;;17.17;15.37;;;12.20;99.90;;;;;;5013111;28;20717;-61
2021/08/25 03:58:56;;;;;;;17.80;15.97;;;12.20;99.90;;;;;;5012754;28;20172;-61
2021/08/25 04:01:21;;;;;;;16.53;14.23;;;12.30;99.90;;;;;;5013011;28;20197;-61
2021/08/25 04:03:47;;;;;;;15.83;14.33;;;12.30;99.90;;;;;;5013491;28;20217;-62
2021/08/25 04:06:13;;;;;;;16.90;15.30;;;12.30;99.90;;;;;;5012381;28;20548;-62
2021/08/25 04:08:38;;;;;;;15.30;13.80;;;12.40;99.90;;;;;;5012568;28;20935;-62
2021/08/25 04:11:04;;;;;;;16.70;15.00;;;12.30;99.90;;;;;;5012823;28;20702;-62
2021/08/25 04:13:29;;;;;;;16.97;15.37;;;12.20;99.90;;;;;;5012736;28;20650;-61
2021/08/25 04:15:55;;;;;;;17.03;15.43;;;12.30;99.90;;;;;;5012757;28;20171;-62
2021/08/25 04:18:20;;;;;;;18.03;15.80;;;12.30;99.90;;;;;;5012537;28;20683;-62
2021/08/25 04:20:46;;;;;;;16.10;14.60;;;12.20;99.90;;;;;;5012463;28;20170;-61
2021/08/25 04:23:12;;;;;;;16.93;14.50;;;12.20;99.90;;;;;;5012545;28;20698;-62
2021/08/25 04:25:37;;;;;;;17.33;15.73;;;12.20;99.90;;;;;;5012618;28;20257;-61
2021/08/25 04:28:03;;;;;;;17.20;15.40;;;12.10;99.90;;;;;;5012535;28;20171;-61
2021/08/25 04:30:28;;;;;;;17.20;14.50;;;12.10;99.90;;;;;;5012280;28;20190;-62
2021/08/25 04:32:54;;;;;;;16.57;14.70;;;12.00;99.90;;;;;;5012380;28;20223;-62
2021/08/25 04:35:19;;;;;;;17.87;15.97;;;12.00;99.90;;;;;;5012418;28;20169;-62
2021/08/25 04:37:45;;;;;;;19.40;17.50;;;12.00;99.90;;;;;;5012403;28;20177;-62
2021/08/25 04:40:11;;;;;;;17.40;13.83;;;12.10;99.90;;;;;;5012154;28;20214;-62
2021/08/25 04:42:36;;;;;;;17.17;15.47;;;12.00;99.90;;;;;;5012431;28;20282;-62
2021/08/25 04:45:02;;;;;;;15.20;13.73;;;12.10;99.90;;;;;;5012293;28;20203;-62
2021/08/25 04:47:28;;;;;;;16.17;14.57;;;12.10;99.90;;;;;;5012359;28;20209;-62
2021/08/25 04:49:53;;;;;;;15.73;13.87;;;12.10;99.90;;;;;;5011900;28;20794;-62
2021/08/25 04:52:19;;;;;;;16.23;14.63;;;11.90;99.90;;;;;;5012027;28;20171;-62
2021/08/25 04:54:44;;;;;;;16.10;14.50;;;12.00;99.90;;;;;;5010889;28;20202;-62
2021/08/25 04:57:10;;;;;;;15.13;13.73;;;12.20;99.90;;;;;;5012189;28;20171;-62
2021/08/25 04:59:35;;;;;;;15.63;14.03;;;12.10;99.90;;;;;;5011862;28;20186;-61
2021/08/25 05:02:01;;;;;;;15.60;14.20;;;12.20;99.90;;;;;;5012131;28;20562;-62
2021/08/25 05:04:26;;;;;;;15.73;14.33;;;12.20;99.90;;;;;;5012052;28;20625;-62
2021/08/25 05:06:52;;;;;;;14.90;13.50;;;12.20;99.90;;;;;;5012004;28;20170;-62
2021/08/25 05:09:17;;;;;;;17.70;15.30;;;12.20;99.90;;;;;;5011823;28;20178;-62
2021/08/25 05:11:43;;;;;;;16.03;13.83;;;12.20;99.90;;;;;;5012123;28;20198;-62
2021/08/25 05:14:08;;;;;;;16.50;14.97;;;12.30;99.90;;;;;;5011860;28;20206;-61
2021/08/25 05:16:34;;;;;;;16.17;14.67;;;12.30;99.90;;;;;;5014227;28;20519;-62
2021/08/25 05:18:59;;;;;;;20.70;18.57;;;12.40;99.90;;;;;;5015705;28;20171;-61
2021/08/25 05:21:26;;;;;;;21.73;16.50;;;12.50;99.90;;;;;;5015906;28;20171;-61
2021/08/25 05:23:52;;;;;;;17.47;15.60;;;12.60;99.90;;;;;;5016024;28;20293;-62
2021/08/25 05:26:18;;;;;;;15.40;13.60;;;12.70;99.90;;;;;;5016009;28;20500;-63
2021/08/25 05:28:43;;;;;;;13.90;12.63;;;12.90;99.90;;;;;;5015501;28;20414;-61
2021/08/25 05:31:09;;;;;;;16.00;14.47;;;13.00;99.90;;;;;;5015809;28;20179;-62
2021/08/25 05:33:34;;;;;;;16.10;14.43;;;13.20;99.90;;;;;;5015762;28;20301;-63
2021/08/25 05:36:00;;;;;;;13.97;12.77;;;13.30;99.90;;;;;;5015586;28;20519;-62
2021/08/25 05:38:27;;;;;;;15.47;13.90;;;13.50;99.90;;;;;;5015400;28;20173;-62
2021/08/25 05:40:52;;;;;;;13.70;12.50;;;13.60;99.90;;;;;;5015623;28;20773;-62
2021/08/25 05:43:18;;;;;;;15.53;14.10;;;13.70;99.90;;;;;;5015461;28;20500;-62
2021/08/25 05:45:44;;;;;;;14.93;13.47;;;13.80;99.90;;;;;;5015485;28;20691;-63
2021/08/25 05:48:10;;;;;;;14.73;13.43;;;14.00;99.90;;;;;;5015533;28;20186;-61
2021/08/25 05:50:36;;;;;;;14.73;13.43;;;14.00;99.90;;;;;;5015038;28;20421;-62
2021/08/25 05:53:01;;;;;;;15.77;14.23;;;14.20;99.90;;;;;;5015286;28;20199;-62
2021/08/25 05:55:27;;;;;;;16.07;14.50;;;14.30;99.90;;;;;;5015363;28;20187;-62
2021/08/25 05:57:52;;;;;;;16.60;14.40;;;14.60;99.90;;;;;;5015209;28;20274;-63
2021/08/25 06:00:19;;;;;;;16.13;14.43;;;14.70;99.90;;;;;;5014788;28;20171;-62
2021/08/25 06:02:44;;;;;;;14.80;13.43;;;14.90;99.90;;;;;;5014999;28;20684;-61
2021/08/25 06:05:12;;;;;;;14.47;13.17;;;15.10;99.90;;;;;;5015087;28;20750;-62
2021/08/25 06:07:37;;;;;;;17.23;15.33;;;15.10;99.90;;;;;;5015242;28;20167;-63
2021/08/25 06:10:04;;;;;;;15.07;13.77;;;15.30;99.90;;;;;;5014772;28;20468;-62
2021/08/25 06:12:29;;;;;;;14.20;13.00;;;15.40;99.90;;;;;;5014867;28;20191;-63
2021/08/25 06:14:55;;;;;;;16.70;15.23;;;15.60;99.90;;;;;;5014877;28;20500;-62
2021/08/25 06:17:20;;;;;;;14.53;13.00;;;15.70;99.90;;;;;;5014951;28;20330;-63
2021/08/25 06:19:46;;;;;;;14.90;13.63;;;15.80;99.90;;;;;;5014548;28;20175;-62
2021/08/25 06:22:12;;;;;;;15.70;14.17;;;16.00;99.90;;;;;;5014786;28;20519;-62
2021/08/25 06:24:37;;;;;;;15.80;14.30;;;16.00;99.90;;;;;;5014793;28;20175;-62
2021/08/25 06:27:03;;;;;;;14.60;13.20;;;16.10;99.90;;;;;;5014253;28;20220;-62
2021/08/25 06:29:29;;;;;;;14.00;12.70;;;16.30;99.90;;;;;;5014285;28;20521;-62
2021/08/25 06:31:55;;;;;;;14.97;13.57;;;16.50;99.90;;;;;;5014637;28;20418;-63
2021/08/25 06:34:20;;;;;;;13.73;12.43;;;16.60;99.90;;;;;;5014515;28;20199;-62
2021/08/25 06:36:46;;;;;;;14.23;12.93;;;16.70;99.90;;;;;;5014659;28;20210;-63
2021/08/25 06:39:11;;;;;;;15.10;13.60;;;16.80;99.90;;;;;;5014625;28;20171;-62
2021/08/25 06:41:37;;;;;;;16.00;14.40;;;17.00;99.90;;;;;;5014472;28;20178;-63
2021/08/25 06:44:03;;;;;;;14.07;12.67;;;17.30;99.90;;;;;;5014220;28;20195;-62
2021/08/25 06:46:29;;;;;;;14.60;12.83;;;17.40;99.90;;;;;;5014471;28;20183;-62
2021/08/25 06:48:54;;;;;;;14.30;12.97;;;17.50;99.90;;;;;;5013937;28;20178;-61
2021/08/25 06:51:20;;;;;;;13.70;12.60;;;17.60;99.90;;;;;;5014300;28;20580;-62
2021/08/25 06:53:45;;;;;;;13.57;12.27;;;17.80;99.90;;;;;;5014068;28;20685;-62
2021/08/25 06:56:11;;;;;;;12.93;11.83;;;17.90;99.90;;;;;;5014185;28;20183;-61
2021/08/25 06:58:36;;;;;;;24.83;22.30;;;18.00;99.90;;;;;;5013825;28;20482;-63
2021/08/25 07:01:02;;;;;;;13.13;11.90;;;18.00;99.90;;;;;;5014312;28;20649;-63
2021/08/25 07:03:27;;;;;;;13.50;12.27;;;18.00;99.90;;;;;;5013856;28;20576;-62
2021/08/25 07:05:53;;;;;;;13.23;12.07;;;18.20;99.90;;;;;;5014011;28;20179;-62
2021/08/25 07:08:18;;;;;;;14.60;13.07;;;18.30;99.90;;;;;;5013806;28;20183;-62
2021/08/25 07:10:44;;;;;;;13.30;11.97;;;18.60;99.90;;;;;;5013731;28;20258;-63
2021/08/25 07:13:09;;;;;;;12.53;11.23;;;18.80;99.90;;;;;;5013701;28;20210;-63
2021/08/25 07:15:35;;;;;;;12.10;11.00;;;19.00;99.90;;;;;;5013920;28;20258;-62
2021/08/25 07:18:00;;;;;;;13.60;11.43;;;19.20;99.90;;;;;;5013726;28;20181;-62
2021/08/25 07:20:26;;;;;;;12.40;10.73;;;19.30;99.90;;;;;;5013539;28;20171;-62
2021/08/25 07:22:51;;;;;;;11.13;10.13;;;19.40;99.90;;;;;;5013658;28;20680;-62
2021/08/25 07:25:17;;;;;;;11.83;10.17;;;19.80;99.90;;;;;;5014092;28;20190;-63
2021/08/25 07:27:43;;;;;;;10.83;9.80;;;20.00;99.90;;;;;;5013540;28;20170;-62
2021/08/25 07:30:10;;;;;;;8.70;8.00;;;20.30;99.90;;;;;;5013272;28;20727;-62
2021/08/25 07:32:38;;;;;;;9.60;8.70;;;20.30;99.90;;;;;;5013342;28;20198;-63
2021/08/25 07:35:04;;;;;;;9.63;8.83;;;20.40;99.90;;;;;;5013432;28;20555;-63
2021/08/25 07:37:30;;;;;;;9.53;8.63;;;20.30;99.90;;;;;;5013287;28;20920;-63
2021/08/25 07:39:55;;;;;;;8.07;7.37;;;20.30;99.90;;;;;;5012130;28;20414;-63
2021/08/25 07:42:21;;;;;;;9.27;7.93;;;20.30;99.90;;;;;;5013109;28;20209;-62
2021/08/25 07:44:46;;;;;;;7.23;6.63;;;20.20;99.90;;;;;;5013296;28;20250;-62
2021/08/25 07:47:12;;;;;;;7.80;7.10;;;20.20;99.90;;;;;;5013185;28;20640;-63
2021/08/25 07:49:37;;;;;;;10.13;7.80;;;20.20;99.90;;;;;;5012956;28;20716;-63
2021/08/25 07:52:04;;;;;;;8.70;7.40;;;20.00;99.90;;;;;;5013142;28;20199;-63
2021/08/25 07:54:30;;;;;;;7.83;7.13;;;20.10;99.90;;;;;;5013011;28;20203;-63
2021/08/25 07:56:55;;;;;;;9.00;8.10;;;20.50;99.90;;;;;;5012968;28;20915;-62
2021/08/25 07:59:21;;;;;;;8.70;7.80;;;20.70;99.90;;;;;;5012964;28;20484;-62
2021/08/25 08:01:46;;;;;;;8.50;7.60;;;20.80;99.90;;;;;;5012926;28;20171;-62
2021/08/25 08:04:12;;;;;;;7.20;6.70;;;20.80;99.90;;;;;;5012770;28;20730;-63
2021/08/25 08:06:37;;;;;;;8.50;7.63;;;21.20;99.90;;;;;;5012824;28;20663;-62
2021/08/25 08:09:03;;;;;;;8.40;7.60;;;21.20;99.90;;;;;;5012568;28;20175;-62
2021/08/25 08:11:29;;;;;;;8.73;7.93;;;21.40;99.90;;;;;;5012805;28;20182;-63
2021/08/25 08:13:54;;;;;;;9.70;8.80;;;21.80;99.90;;;;;;5012618;28;20696;-63
2021/08/25 08:16:21;;;;;;;8.80;8.07;;;22.20;99.90;;;;;;5012662;28;20168;-62
2021/08/25 08:18:56;;;;;;;9.70;8.90;;;22.60;99.90;;;;;;5012436;28;20163;-63
2021/08/25 08:21:26;;;;;;;12.20;11.20;;;22.90;99.90;;;;;;5012596;28;20417;-62
2021/08/25 08:23:52;;;;;;;9.83;9.03;;;22.90;99.90;;;;;;5012492;28;20468;-63
2021/08/25 08:26:18;;;;;;;8.87;8.10;;;22.90;99.90;;;;;;5012547;28;20426;-63
2021/08/25 08:28:43;;;;;;;9.70;8.70;;;22.90;99.90;;;;;;5012236;28;20495;-63
2021/08/25 08:31:10;;;;;;;8.70;8.00;;;23.00;99.90;;;;;;5012397;28;20280;-62
2021/08/25 08:33:36;;;;;;;10.13;8.63;;;23.50;99.90;;;;;;5012340;28;20211;-62
2021/08/25 08:36:02;;;;;;;9.70;8.90;;;23.80;99.90;;;;;;5012377;28;20421;-63
2021/08/25 08:38:28;;;;;;;9.03;8.23;;;23.90;99.90;;;;;;5011967;28;20476;-63
2021/08/25 08:40:53;;;;;;;10.87;7.97;;;24.00;99.90;;;;;;5011065;28;20418;-63
2021/08/25 08:43:19;;;;;;;8.83;8.10;;;24.30;99.90;;;;;;5012267;28;20207;-62
2021/08/25 08:45:44;;;;;;;9.07;8.27;;;24.40;99.90;;;;;;5012156;28;20262;-62
2021/08/25 08:48:14;;;;;;;9.83;8.30;;;24.50;99.90;;;;;;5012304;28;20182;-63
2021/08/25 08:50:43;;;;;;;10.93;8.43;;;24.50;99.90;;;;;;5011758;28;20487;-62
2021/08/25 08:53:10;;;;;;;8.60;7.90;;;24.70;99.90;;;;;;5011948;28;20496;-63
2021/08/25 08:55:36;;;;;;;11.13;7.80;;;24.90;99.90;;;;;;5010984;28;20425;-62
2021/08/25 08:58:02;;;;;;;8.67;7.90;;;24.90;99.90;;;;;;5012187;28;20418;-63
2021/08/25 09:00:28;;;;;;;7.70;7.10;;;25.10;99.90;;;;;;5011876;28;20464;-63
2021/08/25 09:02:53;;;;;;;8.37;7.60;;;25.40;99.90;;;;;;5011928;28;20206;-62
2021/08/25 09:05:20;;;;;;;8.27;7.47;;;25.60;99.70;;;;;;5012168;28;20673;-63
2021/08/25 09:07:48;;;;;;;7.67;6.97;;;26.00;99.20;;;;;;5012088;28;20609;-63
2021/08/25 09:10:20;;;;;;;8.80;7.80;;;26.20;97.90;;;;;;5011867;28;21044;-63
2021/08/25 09:12:53;;;;;;;8.40;7.70;;;26.00;97.40;;;;;;5012017;28;20433;-63
2021/08/25 09:15:20;;;;;;;7.60;7.00;;;25.80;97.30;;;;;;5012000;28;20413;-62
2021/08/25 09:17:46;;;;;;;7.00;6.40;;;25.80;96.60;;;;;;5012070;28;20414;-63
2021/08/25 09:20:12;;;;;;;6.40;5.80;;;25.70;96.30;;;;;;5011644;28;20424;-62
2021/08/25 09:22:38;;;;;;;6.80;6.20;;;25.90;96.10;;;;;;5011890;28;20202;-62
2021/08/25 09:25:04;;;;;;;7.00;6.40;;;26.00;94.60;;;;;;5011869;28;20425;-63
2021/08/25 09:27:30;;;;;;;6.30;5.70;;;25.80;94.60;;;;;;5011978;28;20185;-63
2021/08/25 09:29:58;;;;;;;6.50;5.90;;;26.10;95.00;;;;;;5011538;28;20776;-63
2021/08/25 09:32:26;;;;;;;5.03;4.63;;;26.40;93.60;;;;;;5011855;28;20174;-63
2021/08/25 09:34:57;;;;;;;6.97;5.13;;;27.00;93.60;;;;;;5012225;28;20516;-63
2021/08/25 09:37:24;;;;;;;5.67;5.17;;;27.70;92.00;;;;;;5011821;28;20923;-63
2021/08/25 09:39:52;;;;;;;6.63;6.03;;;28.10;91.20;;;;;;5011582;28;20476;-63
2021/08/25 09:42:21;;;;;;;6.50;5.83;;;28.10;89.50;;;;;;5011753;28;20433;-63
2021/08/25 09:45:00;;;;;;;7.63;6.93;;;28.30;88.60;;;;;;5011748;28;20480;-62
2021/08/25 09:48:04;;;;;;;6.13;5.53;;;27.90;87.70;;;;;;5011782;28;20422;-63
2021/08/25 09:50:30;;;;;;;6.60;6.10;;;28.20;86.30;;;;;;4950791;29;20531;-62
2021/08/25 09:52:56;;;;;;;6.47;5.97;;;28.30;87.90;;;;;;4951014;29;20539;-62
2021/08/25 09:55:35;;;;;;;5.87;5.47;;;29.20;86.20;;;;;;4968842;28;20207;-62
2021/08/25 09:58:02;;;;;;;5.73;5.23;;;29.90;83.40;;;;;;5011526;28;20425;-62
2021/08/25 10:00:28;;;;;;;6.17;5.67;;;30.70;78.00;;;;;;5011331;28;20414;-62
2021/08/25 10:02:55;;;;;;;7.13;6.43;;;30.80;72.80;;;;;;5013004;28;20457;-61
2021/08/25 10:05:28;;;;;;;6.50;5.90;;;30.50;71.80;;;;;;5015120;28;20500;-62
2021/08/25 10:07:54;;;;;;;8.10;7.40;;;30.40;72.20;;;;;;5015105;28;20417;-62
2021/08/25 10:10:20;;;;;;;6.40;5.80;;;30.30;73.30;;;;;;5014699;28;20410;-62
2021/08/25 10:12:48;;;;;;;6.47;5.37;;;30.30;69.80;;;;;;5014922;28;20566;-62
2021/08/25 10:15:40;;;;;;;6.17;5.67;;;30.30;68.80;;;;;;5014911;28;20422;-61
2021/08/25 10:18:23;;;;;;;6.87;6.17;;;30.60;69.70;;;;;;5014917;28;20493;-61
2021/08/25 10:20:49;;;;;;;5.87;5.37;;;29.70;69.00;;;;;;5014693;28;20418;-61
2021/08/25 10:23:15;;;;;;;5.87;5.47;;;29.30;70.00;;;;;;5014766;28;20478;-61
2021/08/25 10:26:09;;;;;;;5.90;5.40;;;29.50;68.00;;;;;;5014693;28;20457;-61
2021/08/25 10:28:59;;;;;;;5.47;4.97;;;30.00;66.20;;;;;;5014875;28;20171;-61
2021/08/25 10:32:05;;;;;;;5.90;5.40;;;30.30;65.50;;;;;;5014638;28;20505;-62
2021/08/25 10:34:37;;;;;;;5.03;4.63;;;30.90;64.50;;;;;;4992818;28;20500;-61
2021/08/25 10:37:12;;;;;;;5.67;5.27;;;29.40;65.90;;;;;;5014765;28;20835;-61
2021/08/25 10:39:39;;;;;;;5.73;5.13;;;28.40;67.40;;;;;;5014221;28;20449;-61
2021/08/25 10:42:05;;;;;;;6.37;5.80;;;28.70;67.50;;;;;;5014486;28;20445;-61
2021/08/25 10:44:37;;;;;;;5.77;5.30;;;28.70;66.20;;;;;;5014304;28;20471;-62
2021/08/25 10:47:04;;;;;;;6.70;6.20;;;30.20;64.90;;;;;;5014355;28;20413;-62
2021/08/25 10:50:08;;;;;;;8.73;4.93;;;31.10;62.80;;;;;;5014040;28;20482;-62
2021/08/25 10:52:33;;;;;;;4.43;4.00;;;30.80;61.70;;;;;;5014087;28;20468;-62
2021/08/25 10:54:59;;;;;;;5.73;5.27;;;30.90;60.50;;;;;;5014156;28;20485;-62
2021/08/25 10:57:25;;;;;;;5.87;5.37;;;32.00;59.70;;;;;;5014203;28;20167;-62
2021/08/25 10:59:51;;;;;;;5.17;4.77;;;32.50;58.20;;;;;;5013850;28;20190;-62
2021/08/25 11:02:16;;;;;;;5.67;5.17;;;32.80;56.30;;;;;;5013824;28;20907;-62
2021/08/25 11:04:42;;;;;;;6.00;5.50;;;33.00;56.30;;;;;;5014064;28;20167;-62
2021/08/25 11:07:10;;;;;;;6.47;6.07;;;33.40;55.50;;;;;;5013968;28;20179;-62
2021/08/25 11:09:51;;;;;;;5.40;5.00;;;33.00;53.80;;;;;;5013705;28;20526;-61
2021/08/25 11:12:18;;;;;;;5.80;5.20;;;31.70;54.60;;;;;;5014181;28;20779;-61
2021/08/25 11:14:49;;;;;;;5.80;5.20;;;30.40;56.00;;;;;;5013496;28;20453;-61
2021/08/25 11:17:17;;;;;;;6.10;5.50;;;29.70;56.40;;;;;;5013726;28;20441;-61
2021/08/25 11:19:44;;;;;;;5.80;5.30;;;29.40;57.90;;;;;;5013471;28;20794;-61
2021/08/25 11:22:37;;;;;;;5.97;5.47;;;29.50;56.90;;;;;;5013602;28;20569;-62
2021/08/25 11:25:05;;;;;;;7.67;7.00;;;29.10;59.10;;;;;;5013724;28;20425;-62
2021/08/25 11:27:48;;;;;;;4.73;4.43;;;29.70;56.50;;;;;;5013604;28;20425;-62
2021/08/25 11:30:24;;;;;;;5.10;4.60;;;30.60;52.70;;;;;;5013345;28;20418;-62
2021/08/25 11:32:57;;;;;;;5.23;4.83;;;32.20;53.30;;;;;;5013448;28;20437;-62
2021/08/25 11:35:44;;;;;;;5.30;4.90;;;33.20;51.90;;;;;;5013428;28;20430;-62
2021/08/25 11:38:18;;;;;;;5.70;5.20;;;33.60;50.70;;;;;;5013543;28;20834;-62
2021/08/25 11:40:49;;;;;;;5.57;5.17;;;34.90;49.70;;;;;;5013311;28;20426;-62
2021/08/25 11:43:19;;;;;;;5.50;5.10;;;34.20;51.00;;;;;;5013266;28;20951;-62
2021/08/25 11:45:51;;;;;;;7.87;6.17;;;34.50;51.80;;;;;;5013244;28;20425;-62
2021/08/25 11:48:16;;;;;;;6.07;5.60;;;34.10;50.80;;;;;;5013082;28;20414;-61
2021/08/25 11:50:46;;;;;;;7.07;6.47;;;30.90;54.20;;;;;;5012986;28;20448;-61
2021/08/25 11:53:20;;;;;;;5.30;4.90;;;29.90;56.10;;;;;;5012962;28;20202;-61
2021/08/25 11:55:47;;;;;;;6.83;6.23;;;29.50;57.50;;;;;;5013153;28;20509;-61
2021/08/25 11:58:33;;;;;;;6.53;6.03;;;28.90;57.80;;;;;;5012937;28;20418;-61
2021/08/25 12:00:59;;;;;;;6.20;5.70;;;28.20;60.50;;;;;;5013063;28;20414;-61
2021/08/25 12:03:45;;;;;;;7.53;5.13;;;28.60;58.70;;;;;;5012762;28;20530;-61
2021/08/25 12:06:16;;;;;;;6.93;6.23;;;28.70;58.60;;;;;;5012910;28;20429;-62
2021/08/25 12:08:46;;;;;;;6.70;6.20;;;30.30;55.10;;;;;;5012487;28;20425;-62
2021/08/25 12:11:14;;;;;;;7.07;6.47;;;30.40;55.30;;;;;;5012681;28;20418;-62
2021/08/25 12:13:44;;;;;;;5.87;5.47;;;31.50;54.40;;;;;;5012650;28;20516;-62
2021/08/25 12:16:33;;;;;;;6.47;5.87;;;31.80;52.90;;;;;;5012724;28;20413;-61
2021/08/25 12:19:04;;;;;;;5.73;5.23;;;30.90;53.20;;;;;;5012458;28;20418;-61
2021/08/25 12:21:31;;;;;;;6.63;6.03;;;29.80;54.00;;;;;;5012576;28;20508;-61
2021/08/25 12:23:57;;;;;;;5.83;5.30;;;30.20;53.20;;;;;;5012551;28;20451;-62
2021/08/25 12:26:23;;;;;;;5.90;5.40;;;31.60;52.20;;;;;;5011941;28;20418;-62
2021/08/25 12:28:49;;;;;;;6.50;4.90;;;31.80;52.20;;;;;;5012268;28;20360;-62
2021/08/25 12:31:22;;;;;;;6.97;6.37;;;33.10;50.20;;;;;;5012534;28;20426;-62
2021/08/25 12:34:03;;;;;;;6.17;5.67;;;33.90;47.60;;;;;;5012392;28;20191;-62
2021/08/25 12:36:33;;;;;;;7.50;6.73;;;34.90;46.70;;;;;;5011453;28;20429;-62
2021/08/25 12:39:05;;;;;;;5.13;4.70;;;36.40;44.90;;;;;;5012244;28;20453;-62